Waverly, Ohio
Current Conditions -  °F | °C
As of 12:34 PM on Tuesday 21 Oct 2014 (Local Time) from KRZT Reporting Station
Overcast Overcast  
Wind Chill: 50°   Ceiling: 2900
Heat Index: 50°   Visibility: 10mi
Dew Point: 41°   Wind: 13mph
Humidity: 71%   Direction: 350°N
Pressure: 30"   Gusts: 17mph
Location:  39.13°N, 82.99°W
Report Text: KRZT 211634Z AUTO 35011G15KT 10SM SCT022 BKN029 OVC047 10/05 A3000 RMK AO2
Loading
Personal Weather Stations






























Interactive Weather Map
Tropical Storm Tracking
New forecast layout! Learn more

10-Day Weather Forecast

Advertisements
Track Severe Weather on mobile